Nicole Leigh Reinauer — WCZ5696 — position and weather

sailwx.info

Track history (hours):
 
Tides and Currents Weather Stations Pressure Air Temp Water Temp Dewpoint Dewpoint Depression Visibility Wind Speed Wind Dir Waves Ship Positions

Nicole Leigh Reinauer

Owner: H A REINAUER INC, STATEN ISLAND, NY. More information available from US FCC via Universal Licensing System and Coast Guard Vessel Documentation Center.

Last reported at 2015-May-07 03:26 UTC. Time now 2015-May-07 08:39 UTC.
Position N 29°57' W 090°02'.

Length 167 m; draft 8.2 m.

Type: Wing in ground effect craft. MMSI: 366774330.

Date/timePositionNaut miles runAvg speedWind from/ knotsBaromVisibWave heightAir tempDewpointWater temp
2015-May-07 03:26N 29°57' W 090°02'0 0.0
2015-May-06 20:26N 29°57' W 090°02'0 0.0
2015-May-06 13:11N 29°57' W 090°02'0 0.0
2015-May-06 12:05N 29°57' W 090°02'  
2015-May-03 07:06N 25°40' W 080°02'610.3
2015-May-03 06:33N 25°45' W 080°02'1110.5
2015-May-03 05:33N 25°56' W 080°01'1110.6
2015-May-03 04:33N 26°06' W 079°60'1212.5
2015-May-03 03:33N 26°19' W 079°60'1211.5
2015-May-03 02:31N 26°30' W 079°59'1010.2
2015-May-03 01:30N 26°41' W 079°58'9 9.8
2015-May-03 00:33N 26°50' W 079°58'9 9.4
2015-May-02 23:33N 26°60' W 079°59'  
2015-Apr-30 10:09N 27°07' W 080°02'711.7
2015-Apr-30 09:33N 26°60' W 080°01'1312.9
2015-Apr-30 08:33N 26°47' W 079°58'1313.4
2015-Apr-30 07:33N 26°33' W 079°60'1413.8
2015-Apr-30 06:33N 26°20' W 080°01'1313.4
2015-Apr-30 05:33N 26°07' W 080°04'1 0.6
2015-Apr-30 04:33N 26°07' W 080°04'0 0.4
2015-Apr-30 03:33N 26°06' W 080°03'4 4.4
2015-Apr-30 02:33N 26°02' W 080°04'1312.9
2015-Apr-30 01:33N 25°49' W 080°03'1212.4
2015-Apr-30 00:33N 25°37' W 080°02'185 5.0
2015-Apr-28 11:33N 27°44' W 082°32'8 7.4
2015-Apr-28 10:32N 27°52' W 082°33'0 0.3
2015-Apr-28 09:32N 27°52' W 082°33'0 0.0
2015-Apr-28 08:32N 27°52' W 082°33'0 0.0
2015-Apr-28 07:32N 27°52' W 082°33'0 0.0
2015-Apr-28 06:32N 27°52' W 082°33'0 0.0
2015-Apr-28 05:32N 27°52' W 082°33'0 0.0
2015-Apr-28 04:32N 27°52' W 082°33'0 0.0
2015-Apr-28 03:32N 27°52' W 082°33'0 0.0
2015-Apr-28 02:29N 27°52' W 082°33'0 0.0
2015-Apr-28 01:32N 27°52' W 082°33'0 0.0
2015-Apr-28 00:32N 27°52' W 082°33'0 0.0
2015-Apr-27 23:32N 27°52' W 082°33'0 0.0
2015-Apr-27 22:32N 27°52' W 082°33'5 5.1
2015-Apr-27 21:33N 27°47' W 082°31'1110.4
2015-Apr-27 20:29N 27°38' W 082°38'13 1.2
2015-Apr-27 09:33N 27°37' W 082°53'  
Track history (hours):
 
Tides and Currents Weather Stations Pressure Air Temp Water Temp Dewpoint Dewpoint Depression Visibility Wind Speed Wind Dir Waves Ship Positions

Nicole Leigh Reinauer

Owner: H A REINAUER INC, STATEN ISLAND, NY. More information available from US FCC via Universal Licensing System and Coast Guard Vessel Documentation Center.

Last reported at 2015-May-07 03:26 UTC. Time now 2015-May-07 08:39 UTC.
Position N 29°57' W 090°02'.

Length 167 m; draft 8.2 m.

Type: Wing in ground effect craft. MMSI: 366774330.

Date/timePositionNaut miles runAvg speedWind from/ knotsBaromVisibWave heightAir tempDewpointWater temp
2015-May-07 03:26N 29°57' W 090°02'0 0.0
2015-May-06 20:26N 29°57' W 090°02'0 0.0
2015-May-06 13:11N 29°57' W 090°02'0 0.0
2015-May-06 12:05N 29°57' W 090°02'  
2015-May-03 07:06N 25°40' W 080°02'610.3
2015-May-03 06:33N 25°45' W 080°02'1110.5
2015-May-03 05:33N 25°56' W 080°01'1110.6
2015-May-03 04:33N 26°06' W 079°60'1212.5
2015-May-03 03:33N 26°19' W 079°60'1211.5
2015-May-03 02:31N 26°30' W 079°59'1010.2
2015-May-03 01:30N 26°41' W 079°58'9 9.8
2015-May-03 00:33N 26°50' W 079°58'9 9.4
2015-May-02 23:33N 26°60' W 079°59'  
2015-Apr-30 10:09N 27°07' W 080°02'711.7
2015-Apr-30 09:33N 26°60' W 080°01'1312.9
2015-Apr-30 08:33N 26°47' W 079°58'1313.4
2015-Apr-30 07:33N 26°33' W 079°60'1413.8
2015-Apr-30 06:33N 26°20' W 080°01'1313.4
2015-Apr-30 05:33N 26°07' W 080°04'1 0.6
2015-Apr-30 04:33N 26°07' W 080°04'0 0.4
2015-Apr-30 03:33N 26°06' W 080°03'4 4.4
2015-Apr-30 02:33N 26°02' W 080°04'1312.9
2015-Apr-30 01:33N 25°49' W 080°03'1212.4
2015-Apr-30 00:33N 25°37' W 080°02'185 5.0
2015-Apr-28 11:33N 27°44' W 082°32'8 7.4
2015-Apr-28 10:32N 27°52' W 082°33'0 0.3
2015-Apr-28 09:32N 27°52' W 082°33'0 0.0
2015-Apr-28 08:32N 27°52' W 082°33'0 0.0
2015-Apr-28 07:32N 27°52' W 082°33'0 0.0
2015-Apr-28 06:32N 27°52' W 082°33'0 0.0
2015-Apr-28 05:32N 27°52' W 082°33'0 0.0
2015-Apr-28 04:32N 27°52' W 082°33'0 0.0
2015-Apr-28 03:32N 27°52' W 082°33'0 0.0
2015-Apr-28 02:29N 27°52' W 082°33'0 0.0
2015-Apr-28 01:32N 27°52' W 082°33'0 0.0
2015-Apr-28 00:32N 27°52' W 082°33'0 0.0
2015-Apr-27 23:32N 27°52' W 082°33'0 0.0
2015-Apr-27 22:32N 27°52' W 082°33'5 5.1
2015-Apr-27 21:33N 27°47' W 082°31'1110.4
2015-Apr-27 20:29N 27°38' W 082°38'13 1.2
2015-Apr-27 09:33N 27°37' W 082°53'  

Dump ship's entire track history